Time;durP1;ratioP1;P1;durP2;ratioP2;P2;SDS_P1;SDS_P2;PMS_P1;PMS_P2;Temp;Humidity;BMP_temperature;BMP_pressure;BME280_temperature;BME280_humidity;BME280_pressure;Samples;Min_cycle;Max_cycle;Signal;HPM_P1;HPM_P2
2021/07/03 00:00:57;;;;;;;5.38;2.80;;;;;;;;;;5014320;28;20064;-63
2021/07/03 00:03:22;;;;;;;4.88;2.70;;;;;;;;;;5015735;28;20437;-63
2021/07/03 00:05:48;;;;;;;8.35;2.75;;;;;;;;;;5016985;28;20037;-62
2021/07/03 00:08:13;;;;;;;6.22;2.97;;;;;;;;;;5019750;28;20029;-64
2021/07/03 00:10:39;;;;;;;4.07;2.63;;;;;;;;;;5017925;28;20447;-63
2021/07/03 00:13:05;;;;;;;6.05;2.80;;;;;;;;;;5016293;28;20397;-64
2021/07/03 00:15:31;;;;;;;4.72;3.28;;;;;;;;;;5015664;28;20640;-65
2021/07/03 00:17:57;;;;;;;10.23;3.00;;;;;;;;;;5000334;28;20032;-64
2021/07/03 00:20:24;;;;;;;4.35;2.42;;;;;;;;;;5011037;28;20028;-63
2021/07/03 00:22:51;;;;;;;7.38;3.20;;;;;;;;;;5012504;28;20132;-63
2021/07/03 00:25:17;;;;;;;4.63;2.78;;;;;;;;;;5009731;28;20097;-63
2021/07/03 00:27:42;;;;;;;7.20;3.15;;;;;;;;;;5013200;28;20057;-63
2021/07/03 00:30:09;;;;;;;5.68;3.15;;;;;;;;;;5014020;28;20140;-62
2021/07/03 00:32:35;;;;;;;7.15;3.15;;;;;;;;;;5015931;28;20041;-62
2021/07/03 00:35:01;;;;;;;7.15;3.00;;;;;;;;;;5015629;28;20256;-63
2021/07/03 00:37:27;;;;;;;8.80;3.35;;;;;;;;;;5009620;28;20436;-63
2021/07/03 00:39:53;;;;;;;6.22;3.05;;;;;;;;;;5019967;28;20033;-63
2021/07/03 00:42:18;;;;;;;5.25;3.25;;;;;;;;;;5017644;28;20034;-63
2021/07/03 00:44:44;;;;;;;6.47;3.17;;;;;;;;;;5011359;28;20147;-64
2021/07/03 00:47:10;;;;;;;9.50;3.50;;;;;;;;;;5010734;28;20037;-64
2021/07/03 00:49:36;;;;;;;7.20;3.55;;;;;;;;;;5018845;28;20451;-64
2021/07/03 00:52:04;;;;;;;6.55;3.17;;;;;;;;;;5014941;28;20120;-63
2021/07/03 00:54:30;;;;;;;5.97;3.38;;;;;;;;;;5018572;28;20029;-63
2021/07/03 00:57:02;;;;;;;5.00;2.85;;;;;;;;;;5012863;28;20447;-63
2021/07/03 00:59:35;;;;;;;7.40;3.72;;;;;;;;;;5014832;28;20053;-63
2021/07/03 01:02:02;;;;;;;5.65;3.20;;;;;;;;;;5010402;28;20030;-64
2021/07/03 01:04:28;;;;;;;6.15;3.30;;;;;;;;;;5017781;28;20036;-64
2021/07/03 01:06:54;;;;;;;4.78;3.08;;;;;;;;;;5016741;28;20095;-64
2021/07/03 01:09:20;;;;;;;4.78;3.20;;;;;;;;;;5020083;28;20376;-64
2021/07/03 01:11:45;;;;;;;4.97;2.92;;;;;;;;;;5013127;28;20052;-64
2021/07/03 01:14:11;;;;;;;5.75;3.30;;;;;;;;;;5016667;28;20041;-64
2021/07/03 01:16:36;;;;;;;4.32;2.72;;;;;;;;;;5016630;28;20065;-64
2021/07/03 01:19:02;;;;;;;4.75;3.13;;;;;;;;;;5015468;28;20030;-64
2021/07/03 01:21:28;;;;;;;5.78;3.13;;;;;;;;;;5010085;28;20048;-64
2021/07/03 01:23:54;;;;;;;6.20;3.15;;;;;;;;;;5011887;28;20132;-64
2021/07/03 01:26:20;;;;;;;7.10;3.22;;;;;;;;;;5013784;28;20112;-63
2021/07/03 01:28:45;;;;;;;6.72;3.35;;;;;;;;;;5019596;28;20396;-63
2021/07/03 01:31:11;;;;;;;6.40;3.00;;;;;;;;;;5014480;28;20033;-63
2021/07/03 01:33:38;;;;;;;6.55;2.83;;;;;;;;;;5020045;28;20033;-63
2021/07/03 01:36:04;;;;;;;4.97;3.20;;;;;;;;;;5014676;28;20504;-63
2021/07/03 01:38:30;;;;;;;8.45;2.80;;;;;;;;;;5010910;28;20029;-64
2021/07/03 01:40:55;;;;;;;7.68;2.80;;;;;;;;;;5013537;28;20044;-64
2021/07/03 01:43:22;;;;;;;4.38;2.65;;;;;;;;;;5014173;28;20030;-65
2021/07/03 01:45:49;;;;;;;3.55;2.40;;;;;;;;;;5019774;28;20038;-64
2021/07/03 01:48:25;;;;;;;3.90;2.58;;;;;;;;;;5015804;28;20040;-64
2021/07/03 01:50:50;;;;;;;6.63;2.60;;;;;;;;;;5014587;28;20092;-64
2021/07/03 01:53:16;;;;;;;3.80;2.45;;;;;;;;;;5019536;28;20030;-64
2021/07/03 01:55:41;;;;;;;3.17;2.42;;;;;;;;;;5017577;28;20033;-64
2021/07/03 01:58:07;;;;;;;3.53;2.42;;;;;;;;;;5016620;28;20081;-64
2021/07/03 02:00:32;;;;;;;4.60;2.58;;;;;;;;;;5017558;28;20029;-64
2021/07/03 02:02:58;;;;;;;4.65;2.20;;;;;;;;;;5011769;28;20396;-64
2021/07/03 02:05:23;;;;;;;6.55;2.65;;;;;;;;;;5016895;28;20033;-63
2021/07/03 02:07:49;;;;;;;5.25;2.60;;;;;;;;;;5019348;28;20037;-63
2021/07/03 02:10:14;;;;;;;14.50;3.22;;;;;;;;;;5015695;28;20492;-63
2021/07/03 02:12:41;;;;;;;2.47;1.98;;;;;;;;;;5015333;28;20121;-63
2021/07/03 02:15:07;;;;;;;6.15;2.60;;;;;;;;;;5022408;28;20044;-63
2021/07/03 02:17:33;;;;;;;4.75;2.72;;;;;;;;;;5018030;28;20108;-63
2021/07/03 02:19:58;;;;;;;6.32;2.65;;;;;;;;;;5018164;28;20128;-63
2021/07/03 02:22:24;;;;;;;6.95;2.70;;;;;;;;;;5013713;28;20042;-64
2021/07/03 02:24:49;;;;;;;4.70;3.00;;;;;;;;;;5021200;28;20511;-63
2021/07/03 02:27:15;;;;;;;5.15;2.65;;;;;;;;;;5019183;28;20056;-63
2021/07/03 02:29:42;;;;;;;4.85;2.63;;;;;;;;;;5015434;28;20029;-63
2021/07/03 02:32:07;;;;;;;4.88;2.35;;;;;;;;;;5013456;28;20488;-63
2021/07/03 02:34:33;;;;;;;4.88;2.20;;;;;;;;;;5022853;28;20033;-63
2021/07/03 02:36:58;;;;;;;3.97;2.67;;;;;;;;;;5011958;28;20065;-63
2021/07/03 02:39:24;;;;;;;4.82;2.53;;;;;;;;;;5015454;28;20388;-63
2021/07/03 02:41:49;;;;;;;4.10;2.58;;;;;;;;;;5016425;28;20145;-63
2021/07/03 02:44:15;;;;;;;6.28;2.78;;;;;;;;;;5016814;28;20049;-63
2021/07/03 02:46:40;;;;;;;4.95;2.50;;;;;;;;;;5027925;28;20556;-62
2021/07/03 02:49:06;;;;;;;5.32;2.80;;;;;;;;;;5023800;28;20068;-63
2021/07/03 02:51:31;;;;;;;3.50;2.17;;;;;;;;;;5016912;28;20450;-62
2021/07/03 02:53:57;;;;;;;4.53;2.83;;;;;;;;;;5015533;28;20120;-63
2021/07/03 02:56:22;;;;;;;5.22;2.42;;;;;;;;;;5020198;28;20029;-63
2021/07/03 02:58:48;;;;;;;6.10;2.22;;;;;;;;;;5013153;28;20416;-62
2021/07/03 03:01:13;;;;;;;4.38;2.40;;;;;;;;;;5015349;28;20042;-62
2021/07/03 03:03:42;;;;;;;5.45;2.80;;;;;;;;;;5014620;28;20068;-63
2021/07/03 03:06:08;;;;;;;4.13;2.58;;;;;;;;;;5015443;28;20029;-62
2021/07/03 03:08:34;;;;;;;4.88;2.70;;;;;;;;;;5021680;28;20074;-62
2021/07/03 03:11:02;;;;;;;4.13;2.78;;;;;;;;;;5007954;28;20511;-63
2021/07/03 03:13:27;;;;;;;6.03;2.47;;;;;;;;;;5016175;28;20124;-63
2021/07/03 03:15:53;;;;;;;4.88;2.70;;;;;;;;;;5016581;28;20112;-63
2021/07/03 03:18:18;;;;;;;5.55;3.00;;;;;;;;;;5017576;28;20038;-62
2021/07/03 03:20:44;;;;;;;5.97;3.15;;;;;;;;;;5015211;28;20092;-62
2021/07/03 03:23:09;;;;;;;3.95;2.67;;;;;;;;;;5019402;28;20041;-62
2021/07/03 03:25:35;;;;;;;5.53;2.83;;;;;;;;;;5015136;28;20033;-63
2021/07/03 03:28:01;;;;;;;8.63;3.50;;;;;;;;;;5023087;28;20032;-62
2021/07/03 03:30:26;;;;;;;7.00;2.90;;;;;;;;;;5013774;28;20284;-63
2021/07/03 03:32:52;;;;;;;5.05;2.85;;;;;;;;;;5018256;28;20021;-58
2021/07/03 03:35:17;;;;;;;5.28;2.80;;;;;;;;;;5023013;28;20120;-59
2021/07/03 03:37:43;;;;;;;7.70;3.15;;;;;;;;;;5021514;28;20033;-58
2021/07/03 03:40:09;;;;;;;5.45;3.20;;;;;;;;;;5014860;28;20084;-59
2021/07/03 03:42:35;;;;;;;5.03;3.28;;;;;;;;;;5010448;28;20088;-58
2021/07/03 03:45:01;;;;;;;4.95;3.40;;;;;;;;;;5014302;28;20111;-58
2021/07/03 03:47:27;;;;;;;5.63;3.33;;;;;;;;;;5020798;28;20034;-59
2021/07/03 03:49:52;;;;;;;5.07;3.00;;;;;;;;;;5009412;28;20468;-59
2021/07/03 03:52:18;;;;;;;8.43;3.78;;;;;;;;;;5016411;28;20057;-59
2021/07/03 03:54:43;;;;;;;6.55;3.92;;;;;;;;;;5018611;28;20021;-59
2021/07/03 03:57:21;;;;;;;5.80;3.63;;;;;;;;;;5018552;28;20029;-59
2021/07/03 03:59:48;;;;;;;4.35;3.35;;;;;;;;;;5019464;28;20028;-58
2021/07/03 04:02:14;;;;;;;4.15;2.80;;;;;;;;;;5018160;28;20075;-63
2021/07/03 04:04:40;;;;;;;5.00;3.20;;;;;;;;;;5013152;28;20038;-58
2021/07/03 04:07:05;;;;;;;6.32;3.85;;;;;;;;;;5017744;28;20030;-58
2021/07/03 04:09:31;;;;;;;4.35;3.10;;;;;;;;;;5024095;28;20547;-58
2021/07/03 04:11:56;;;;;;;6.25;3.50;;;;;;;;;;5020253;28;20029;-59
2021/07/03 04:14:22;;;;;;;5.32;3.20;;;;;;;;;;5018205;28;20534;-59
2021/07/03 04:16:48;;;;;;;5.05;3.30;;;;;;;;;;5023551;28;20097;-58
2021/07/03 04:19:13;;;;;;;7.60;3.42;;;;;;;;;;5017799;28;20040;-59
2021/07/03 04:21:39;;;;;;;6.10;3.67;;;;;;;;;;5015183;28;20497;-59
2021/07/03 04:24:04;;;;;;;5.28;3.40;;;;;;;;;;5018902;28;20045;-60
2021/07/03 04:26:30;;;;;;;5.63;3.65;;;;;;;;;;5018410;28;20033;-59
2021/07/03 04:28:55;;;;;;;5.10;3.67;;;;;;;;;;5017878;28;20033;-59
2021/07/03 04:31:21;;;;;;;7.47;3.75;;;;;;;;;;5023784;28;20025;-59
2021/07/03 04:33:46;;;;;;;7.72;4.80;;;;;;;;;;5019270;28;20455;-64
2021/07/03 04:36:12;;;;;;;7.78;3.85;;;;;;;;;;5012710;28;20140;-64
2021/07/03 04:38:37;;;;;;;8.15;4.88;;;;;;;;;;5006601;28;20052;-64
2021/07/03 04:41:03;;;;;;;7.55;5.35;;;;;;;;;;5014757;28;20642;-64
2021/07/03 04:43:28;;;;;;;5.85;4.47;;;;;;;;;;5018128;28;20060;-63
2021/07/03 04:45:54;;;;;;;5.55;4.07;;;;;;;;;;5017639;28;20493;-63
2021/07/03 04:48:19;;;;;;;5.97;4.85;;;;;;;;;;5020878;28;20034;-64
2021/07/03 04:50:45;;;;;;;7.18;5.07;;;;;;;;;;5016093;28;20095;-64
2021/07/03 04:53:11;;;;;;;9.43;5.20;;;;;;;;;;5022889;28;20416;-63
2021/07/03 04:55:36;;;;;;;7.95;5.30;;;;;;;;;;5016810;28;20174;-64
2021/07/03 04:58:02;;;;;;;8.05;5.38;;;;;;;;;;5017677;28;20132;-63
2021/07/03 05:00:28;;;;;;;9.35;5.80;;;;;;;;;;5016469;28;20041;-63
2021/07/03 05:02:53;;;;;;;7.43;5.65;;;;;;;;;;5016015;28;20029;-63
2021/07/03 05:05:19;;;;;;;12.75;6.15;;;;;;;;;;5018237;28;20060;-63
2021/07/03 05:07:44;;;;;;;8.77;5.00;;;;;;;;;;5020819;28;20215;-63
2021/07/03 05:10:11;;;;;;;12.50;5.95;;;;;;;;;;5014911;28;20037;-63
2021/07/03 05:12:37;;;;;;;7.78;5.15;;;;;;;;;;5016955;28;20068;-63
2021/07/03 05:15:03;;;;;;;12.52;6.22;;;;;;;;;;5016450;28;20100;-63
2021/07/03 05:17:29;;;;;;;7.13;5.45;;;;;;;;;;5015541;28;20037;-64
2021/07/03 05:19:55;;;;;;;7.65;5.00;;;;;;;;;;5013369;28;20112;-64
2021/07/03 05:22:21;;;;;;;7.68;5.05;;;;;;;;;;5013319;28;20037;-64
2021/07/03 05:24:46;;;;;;;7.57;5.22;;;;;;;;;;5017687;28;20036;-63
2021/07/03 05:27:12;;;;;;;9.32;4.57;;;;;;;;;;5014729;28;20034;-63
2021/07/03 05:29:37;;;;;;;7.15;4.72;;;;;;;;;;5015596;28;20523;-64
2021/07/03 05:32:03;;;;;;;7.03;4.35;;;;;;;;;;5018331;28;20022;-64
2021/07/03 05:34:29;;;;;;;5.85;4.72;;;;;;;;;;5016557;28;20100;-57
2021/07/03 05:36:55;;;;;;;6.32;4.47;;;;;;;;;;5013300;28;20113;-58
2021/07/03 05:39:20;;;;;;;8.32;4.50;;;;;;;;;;5014484;28;20029;-58
2021/07/03 05:41:46;;;;;;;9.73;5.53;;;;;;;;;;5015412;28;20064;-58
2021/07/03 05:44:11;;;;;;;6.53;4.18;;;;;;;;;;5013956;28;20017;-58
2021/07/03 05:46:38;;;;;;;7.55;4.60;;;;;;;;;;5015078;28;20523;-57
2021/07/03 05:49:03;;;;;;;5.90;4.32;;;;;;;;;;5020553;28;20056;-57
2021/07/03 05:51:29;;;;;;;8.40;4.38;;;;;;;;;;5015708;28;20069;-58
2021/07/03 05:53:55;;;;;;;6.53;4.22;;;;;;;;;;5024093;28;20029;-56
2021/07/03 05:56:21;;;;;;;5.90;3.83;;;;;;;;;;5016633;28;20034;-57
2021/07/03 05:58:46;;;;;;;5.80;3.70;;;;;;;;;;5014999;28;20037;-57
2021/07/03 06:01:12;;;;;;;6.18;3.80;;;;;;;;;;5014115;28;20540;-57
2021/07/03 06:03:37;;;;;;;5.85;3.72;;;;;;;;;;5012930;28;20021;-57
2021/07/03 06:06:03;;;;;;;6.15;3.80;;;;;;;;;;5014729;28;20485;-59
2021/07/03 06:08:28;;;;;;;7.90;3.70;;;;;;;;;;5016554;28;20053;-57
2021/07/03 06:10:54;;;;;;;6.25;3.50;;;;;;;;;;5015891;28;20036;-57
2021/07/03 06:13:19;;;;;;;5.43;3.13;;;;;;;;;;5017347;28;20479;-61
2021/07/03 06:15:45;;;;;;;5.30;3.33;;;;;;;;;;5023413;28;20044;-60
2021/07/03 06:18:10;;;;;;;3.30;2.72;;;;;;;;;;5020032;28;20435;-58
2021/07/03 06:20:36;;;;;;;3.28;2.80;;;;;;;;;;5012103;28;20029;-64
2021/07/03 06:23:01;;;;;;;7.53;3.15;;;;;;;;;;5016300;28;20389;-64
2021/07/03 06:25:27;;;;;;;8.02;3.05;;;;;;;;;;5007359;28;20108;-65
2021/07/03 06:27:53;;;;;;;5.10;3.30;;;;;;;;;;5012070;28;20106;-65
2021/07/03 06:30:18;;;;;;;3.65;2.78;;;;;;;;;;5013613;28;20522;-66
2021/07/03 06:32:44;;;;;;;8.00;2.88;;;;;;;;;;5008898;28;20547;-59
2021/07/03 06:35:10;;;;;;;3.38;2.85;;;;;;;;;;5014512;28;20064;-61
2021/07/03 06:37:35;;;;;;;4.53;2.75;;;;;;;;;;5025464;28;20029;-59
2021/07/03 06:40:01;;;;;;;3.90;2.30;;;;;;;;;;5017485;28;20076;-59
2021/07/03 06:42:26;;;;;;;3.97;2.45;;;;;;;;;;5022230;28;20037;-59
2021/07/03 06:44:52;;;;;;;3.25;2.13;;;;;;;;;;5012400;28;20041;-59
2021/07/03 06:47:18;;;;;;;5.00;2.70;;;;;;;;;;5013967;28;20030;-61
2021/07/03 06:49:44;;;;;;;4.05;2.80;;;;;;;;;;5016939;28;20056;-61
2021/07/03 06:52:10;;;;;;;3.85;2.42;;;;;;;;;;5018281;28;20034;-60
2021/07/03 06:54:40;;;;;;;5.57;2.90;;;;;;;;;;5017778;28;20037;-60
2021/07/03 06:57:08;;;;;;;4.05;2.75;;;;;;;;;;5019371;28;20044;-60
2021/07/03 06:59:34;;;;;;;4.68;2.67;;;;;;;;;;5019630;28;20566;-60
2021/07/03 07:02:00;;;;;;;4.55;2.95;;;;;;;;;;5016431;28;20112;-61
2021/07/03 07:04:26;;;;;;;7.57;3.03;;;;;;;;;;5017501;28;20037;-66
2021/07/03 07:06:55;;;;;;;5.28;2.70;;;;;;;;;;5015383;28;20485;-67
2021/07/03 07:09:21;;;;;;;6.03;2.50;;;;;;;;;;5015245;28;20034;-67
2021/07/03 07:11:47;;;;;;;6.72;2.90;;;;;;;;;;5019009;28;20049;-68
2021/07/03 07:14:13;;;;;;;3.97;2.67;;;;;;;;;;5020077;28;20037;-67
2021/07/03 07:16:39;;;;;;;6.55;3.35;;;;;;;;;;5011332;28;20095;-66
2021/07/03 07:19:05;;;;;;;3.90;2.72;;;;;;;;;;5017358;28;20045;-66
2021/07/03 07:21:31;;;;;;;5.75;2.78;;;;;;;;;;5016242;28;20053;-67
2021/07/03 07:23:57;;;;;;;5.15;2.95;;;;;;;;;;5016988;28;20086;-66
2021/07/03 07:26:23;;;;;;;4.60;2.90;;;;;;;;;;5025135;28;20029;-66
2021/07/03 07:28:49;;;;;;;5.05;3.00;;;;;;;;;;5014007;28;20045;-66
2021/07/03 07:31:16;;;;;;;7.70;3.67;;;;;;;;;;5018294;28;20025;-67
2021/07/03 07:33:41;;;;;;;8.13;3.65;;;;;;;;;;5012031;28;20120;-59
2021/07/03 07:36:07;;;;;;;6.25;3.47;;;;;;;;;;5012767;28;20117;-60
2021/07/03 07:38:32;;;;;;;6.47;3.58;;;;;;;;;;5009966;28;20051;-60
2021/07/03 07:40:58;;;;;;;12.05;3.70;;;;;;;;;;5016753;28;20429;-59
2021/07/03 07:43:23;;;;;;;10.45;4.35;;;;;;;;;;5016684;28;20056;-59
2021/07/03 07:45:49;;;;;;;7.47;3.35;;;;;;;;;;5022271;28;20029;-60
2021/07/03 07:48:15;;;;;;;6.00;4.15;;;;;;;;;;5024932;28;20063;-60
2021/07/03 07:50:41;;;;;;;8.15;4.10;;;;;;;;;;5021941;28;20053;-59
2021/07/03 07:53:06;;;;;;;7.07;3.85;;;;;;;;;;5014069;28;20026;-60
2021/07/03 07:55:32;;;;;;;7.75;3.50;;;;;;;;;;5018816;28;20075;-60
2021/07/03 07:57:58;;;;;;;8.10;3.58;;;;;;;;;;5020071;28;20552;-60
2021/07/03 08:00:23;;;;;;;5.00;3.30;;;;;;;;;;5021692;28;20083;-60
2021/07/03 08:02:50;;;;;;;7.72;3.65;;;;;;;;;;5018182;28;20458;-66
2021/07/03 08:05:17;;;;;;;5.72;3.42;;;;;;;;;;5017760;28;20377;-66
2021/07/03 08:07:42;;;;;;;8.90;3.50;;;;;;;;;;5022016;28;20021;-66
2021/07/03 08:10:09;;;;;;;5.72;3.35;;;;;;;;;;5019489;28;20022;-66
2021/07/03 08:12:35;;;;;;;5.65;3.35;;;;;;;;;;5020941;28;20200;-65
2021/07/03 08:15:00;;;;;;;6.13;3.42;;;;;;;;;;5018815;28;20174;-65
2021/07/03 08:17:26;;;;;;;8.20;3.63;;;;;;;;;;5020179;28;20152;-66
2021/07/03 08:19:51;;;;;;;5.50;3.30;;;;;;;;;;5014894;28;20049;-65
2021/07/03 08:22:17;;;;;;;8.20;3.35;;;;;;;;;;5017498;28;20494;-64
2021/07/03 08:24:42;;;;;;;8.80;3.72;;;;;;;;;;5017053;28;20552;-63
2021/07/03 08:27:08;;;;;;;6.00;3.33;;;;;;;;;;5023423;28;20029;-67
2021/07/03 08:29:33;;;;;;;9.05;3.13;;;;;;;;;;5015227;28;20033;-63
2021/07/03 08:32:13;;;;;;;8.52;3.60;;;;;;;;;;5012890;28;20074;-62
2021/07/03 08:34:39;;;;;;;8.40;3.65;;;;;;;;;;5018675;28;20168;-58
2021/07/03 08:37:04;;;;;;;7.65;4.15;;;;;;;;;;5013540;28;20116;-58
2021/07/03 08:39:30;;;;;;;6.93;3.67;;;;;;;;;;5011953;28;20042;-58
2021/07/03 08:41:55;;;;;;;8.13;4.35;;;;;;;;;;5016602;28;20037;-57
2021/07/03 08:44:21;;;;;;;5.93;3.58;;;;;;;;;;5017482;28;20312;-57
2021/07/03 08:46:46;;;;;;;7.53;3.60;;;;;;;;;;5014453;28;20025;-59
2021/07/03 08:49:13;;;;;;;6.15;3.47;;;;;;;;;;5024873;28;20111;-58
2021/07/03 08:51:45;;;;;;;7.78;3.83;;;;;;;;;;5014246;28;20038;-58
2021/07/03 08:54:10;;;;;;;6.68;3.80;;;;;;;;;;5015370;28;20055;-58
2021/07/03 08:56:36;;;;;;;9.70;4.35;;;;;;;;;;5016642;28;20069;-58
2021/07/03 08:59:01;;;;;;;14.00;4.57;;;;;;;;;;5017119;28;20476;-57
2021/07/03 09:01:27;;;;;;;7.25;4.13;;;;;;;;;;5008550;28;20234;-58
2021/07/03 09:03:55;;;;;;;11.15;5.15;;;;;;;;;;5016078;28;20058;-65
2021/07/03 09:06:33;;;;;;;9.45;4.93;;;;;;;;;;5012036;28;20045;-62
2021/07/03 09:08:59;;;;;;;8.10;4.72;;;;;;;;;;5019580;28;20030;-62
2021/07/03 09:11:25;;;;;;;8.35;4.85;;;;;;;;;;5019356;28;20040;-63
2021/07/03 09:14:02;;;;;;;11.23;5.00;;;;;;;;;;5018547;28;20048;-63
2021/07/03 09:16:33;;;;;;;8.23;5.00;;;;;;;;;;5014908;28;20029;-65
2021/07/03 09:19:00;;;;;;;10.15;5.57;;;;;;;;;;5018522;28;20033;-63
2021/07/03 09:21:26;;;;;;;10.23;6.03;;;;;;;;;;5012275;28;20054;-67
2021/07/03 09:23:51;;;;;;;12.70;6.07;;;;;;;;;;5018835;28;20113;-67
2021/07/03 09:26:17;;;;;;;9.48;5.75;;;;;;;;;;5019865;28;21852;-67
2021/07/03 09:28:45;;;;;;;10.40;6.22;;;;;;;;;;5017012;28;20044;-66
2021/07/03 09:31:15;;;;;;;12.68;6.20;;;;;;;;;;5018849;28;20032;-62
2021/07/03 09:33:45;;;;;;;11.02;5.90;;;;;;;;;;5017352;28;20087;-61
2021/07/03 09:36:13;;;;;;;11.38;5.93;;;;;;;;;;5013141;28;20368;-63
2021/07/03 09:38:40;;;;;;;9.95;6.55;;;;;;;;;;5019943;28;20484;-62
2021/07/03 09:41:09;;;;;;;14.18;5.55;;;;;;;;;;5016624;28;20041;-62
2021/07/03 09:43:36;;;;;;;10.15;4.80;;;;;;;;;;5015088;28;20488;-62
2021/07/03 09:46:01;;;;;;;10.13;5.15;;;;;;;;;;5013870;28;20132;-61
2021/07/03 09:48:27;;;;;;;8.27;5.53;;;;;;;;;;5013646;28;20104;-61
2021/07/03 09:50:52;;;;;;;7.70;5.25;;;;;;;;;;5009996;28;20553;-61
2021/07/03 09:53:19;;;;;;;9.57;5.72;;;;;;;;;;5013145;28;20507;-61
2021/07/03 09:55:45;;;;;;;8.48;5.32;;;;;;;;;;5014195;28;20028;-61
2021/07/03 09:58:12;;;;;;;7.82;4.80;;;;;;;;;;5012842;28;20033;-61
2021/07/03 10:00:38;;;;;;;10.75;5.47;;;;;;;;;;5008153;28;20040;-64
2021/07/03 10:03:08;;;;;;;10.35;4.95;;;;;;;;;;5009382;28;20030;-64
2021/07/03 10:05:47;;;;;;;10.50;5.47;;;;;;;;;;5012710;28;20120;-64
2021/07/03 10:08:19;;;;;;;10.43;6.15;;;;;;;;;;5009824;28;20029;-63
2021/07/03 10:10:53;;;;;;;10.02;6.00;;;;;;;;;;5017692;28;20030;-64
2021/07/03 10:13:21;;;;;;;10.63;6.72;;;;;;;;;;5013376;28;20033;-63
2021/07/03 10:15:47;;;;;;;14.82;6.57;;;;;;;;;;5023015;28;20395;-62
2021/07/03 10:18:21;;;;;;;14.02;6.97;;;;;;;;;;5019638;28;20024;-60
2021/07/03 10:20:47;;;;;;;11.85;6.07;;;;;;;;;;5019220;28;20424;-61
2021/07/03 10:23:13;;;;;;;10.65;5.78;;;;;;;;;;4999607;28;20313;-66
2021/07/03 10:25:45;;;;;;;12.10;6.38;;;;;;;;;;5004119;28;20053;-61
2021/07/03 10:28:13;;;;;;;11.70;6.68;;;;;;;;;;5000829;28;20026;-63
2021/07/03 10:30:41;;;;;;;10.38;6.43;;;;;;;;;;4997565;28;20228;-69
2021/07/03 10:33:17;;;;;;;14.55;6.97;;;;;;;;;;5000707;28;20559;-69
2021/07/03 10:35:54;;;;;;;10.52;6.07;;;;;;;;;;5004599;28;20492;-68
2021/07/03 10:38:21;;;;;;;10.65;6.07;;;;;;;;;;4998190;28;20453;-68
2021/07/03 10:40:49;;;;;;;11.00;5.82;;;;;;;;;;4996795;28;20590;-69
2021/07/03 10:43:15;;;;;;;10.88;6.95;;;;;;;;;;4999099;28;20040;-69
2021/07/03 10:45:55;;;;;;;11.80;7.22;;;;;;;;;;4996575;28;20038;-69
2021/07/03 10:48:26;;;;;;;12.07;7.93;;;;;;;;;;4997293;28;20241;-69
2021/07/03 10:50:54;;;;;;;12.70;8.20;;;;;;;;;;5000092;28;20035;-69
2021/07/03 10:53:29;;;;;;;12.23;7.75;;;;;;;;;;5000973;28;20371;-69
2021/07/03 10:56:08;;;;;;;16.60;7.57;;;;;;;;;;5002339;28;20036;-69
2021/07/03 10:58:39;;;;;;;15.02;8.07;;;;;;;;;;4996656;28;20031;-64
2021/07/03 11:01:15;;;;;;;12.18;7.75;;;;;;;;;;4997972;28;20105;-63
2021/07/03 11:03:42;;;;;;;11.85;7.43;;;;;;;;;;4997787;28;20049;-64
2021/07/03 11:06:17;;;;;;;12.55;6.30;;;;;;;;;;4999737;28;20172;-63
2021/07/03 11:08:44;;;;;;;10.30;5.88;;;;;;;;;;5002493;28;20025;-65
2021/07/03 11:11:11;;;;;;;8.88;5.15;;;;;;;;;;4996058;28;20037;-61
2021/07/03 11:13:37;;;;;;;8.05;4.35;;;;;;;;;;5000373;28;20026;-60
2021/07/03 11:16:06;;;;;;;7.20;3.90;;;;;;;;;;5001521;28;20029;-60
2021/07/03 11:18:39;;;;;;;6.72;4.00;;;;;;;;;;4996982;28;20037;-61
2021/07/03 11:21:09;;;;;;;8.32;4.20;;;;;;;;;;5002153;28;20505;-62
2021/07/03 11:23:36;;;;;;;6.85;3.90;;;;;;;;;;5019196;28;20030;-64
2021/07/03 11:26:14;;;;;;;5.95;3.67;;;;;;;;;;5023148;28;20075;-64
2021/07/03 11:28:40;;;;;;;9.88;4.43;;;;;;;;;;5024238;28;20061;-61
2021/07/03 11:31:06;;;;;;;6.03;4.25;;;;;;;;;;5021199;28;20049;-61
2021/07/03 11:33:35;;;;;;;7.30;4.20;;;;;;;;;;5015021;28;20034;-64
2021/07/03 11:36:03;;;;;;;7.68;4.28;;;;;;;;;;5013767;28;20029;-64
2021/07/03 11:38:28;;;;;;;7.88;3.97;;;;;;;;;;5016596;28;20053;-64
2021/07/03 11:40:56;;;;;;;7.57;4.68;;;;;;;;;;5022423;28;20060;-66
2021/07/03 11:43:22;;;;;;;6.97;4.80;;;;;;;;;;5019652;28;20042;-67
2021/07/03 11:45:48;;;;;;;6.55;4.13;;;;;;;;;;5015543;28;20026;-65
2021/07/03 11:48:15;;;;;;;5.93;4.15;;;;;;;;;;5019942;28;20030;-65
2021/07/03 11:50:48;;;;;;;7.05;3.92;;;;;;;;;;5016555;28;20040;-65
2021/07/03 11:53:16;;;;;;;5.22;3.58;;;;;;;;;;5017883;28;20492;-64
2021/07/03 11:55:47;;;;;;;4.13;3.10;;;;;;;;;;5017074;28;20105;-65
2021/07/03 11:58:18;;;;;;;4.78;3.03;;;;;;;;;;5022081;28;20033;-65
2021/07/03 12:00:49;;;;;;;2.70;2.22;;;;;;;;;;5016799;28;20041;-65
2021/07/03 12:03:17;;;;;;;2.85;1.70;;;;;;;;;;5017911;28;20030;-65
2021/07/03 12:05:48;;;;;;;2.42;1.80;;;;;;;;;;5015486;28;20042;-64
2021/07/03 12:08:14;;;;;;;2.90;1.70;;;;;;;;;;5019799;28;20251;-65
2021/07/03 12:10:52;;;;;;;2.20;1.23;;;;;;;;;;5017569;28;20038;-65
2021/07/03 12:13:31;;;;;;;2.35;1.30;;;;;;;;;;5019399;28;20047;-61
2021/07/03 12:15:57;;;;;;;2.53;1.20;;;;;;;;;;5016171;28;20060;-60
2021/07/03 12:18:25;;;;;;;2.70;1.70;;;;;;;;;;5018261;28;20057;-60
2021/07/03 12:21:13;;;;;;;2.15;1.83;;;;;;;;;;5016626;28;20382;-61
2021/07/03 12:24:03;;;;;;;4.93;1.30;;;;;;;;;;5016312;28;20485;-60
2021/07/03 12:26:31;;;;;;;1.52;1.20;;;;;;;;;;5016897;28;20040;-64
2021/07/03 12:29:02;;;;;;;2.40;1.30;;;;;;;;;;5014772;28;20468;-61
2021/07/03 12:31:31;;;;;;;4.23;1.40;;;;;;;;;;5014093;28;20030;-60
2021/07/03 12:34:11;;;;;;;4.25;1.35;;;;;;;;;;5011323;28;20057;-59
2021/07/03 12:36:43;;;;;;;1.67;1.13;;;;;;;;;;5008920;28;20073;-58
2021/07/03 12:39:19;;;;;;;5.65;1.55;;;;;;;;;;5018138;28;20080;-59
2021/07/03 12:41:46;;;;;;;3.58;1.42;;;;;;;;;;5012649;28;20033;-60
2021/07/03 12:44:12;;;;;;;7.28;2.10;;;;;;;;;;5018537;28;20045;-58
2021/07/03 12:46:41;;;;;;;2.72;1.63;;;;;;;;;;5012069;28;20084;-58
2021/07/03 12:49:07;;;;;;;3.17;1.85;;;;;;;;;;5018679;28;20026;-58
2021/07/03 12:51:38;;;;;;;3.80;2.25;;;;;;;;;;5011772;28;20022;-57
2021/07/03 12:54:06;;;;;;;5.18;2.70;;;;;;;;;;5017144;28;20040;-58
2021/07/03 12:56:32;;;;;;;3.47;2.50;;;;;;;;;;5019789;28;20033;-58
2021/07/03 12:59:08;;;;;;;4.55;2.92;;;;;;;;;;5017957;28;20031;-58
2021/07/03 13:01:36;;;;;;;5.68;2.90;;;;;;;;;;5017173;28;20397;-57
2021/07/03 13:04:04;;;;;;;4.57;3.50;;;;;;;;;;5017297;28;20034;-58
2021/07/03 13:06:30;;;;;;;5.38;2.70;;;;;;;;;;5011759;28;20026;-59
2021/07/03 13:08:56;;;;;;;5.65;3.05;;;;;;;;;;5011107;28;20091;-58
2021/07/03 13:11:29;;;;;;;3.85;3.42;;;;;;;;;;5017174;28;20037;-58
2021/07/03 13:13:56;;;;;;;4.55;3.50;;;;;;;;;;5015893;28;20030;-58
2021/07/03 13:16:22;;;;;;;3.72;3.08;;;;;;;;;;5021962;28;20119;-59
2021/07/03 13:18:47;;;;;;;4.30;3.03;;;;;;;;;;5011604;28;20065;-58
2021/07/03 13:21:13;;;;;;;3.83;2.90;;;;;;;;;;5013197;28;20057;-58
2021/07/03 13:23:38;;;;;;;3.78;2.97;;;;;;;;;;5013785;28;20037;-58
2021/07/03 13:26:10;;;;;;;5.72;3.35;;;;;;;;;;5017133;28;20039;-58
2021/07/03 13:28:37;;;;;;;4.65;3.65;;;;;;;;;;5010046;28;20412;-58
2021/07/03 13:31:05;;;;;;;6.50;3.60;;;;;;;;;;5017709;28;20400;-58
2021/07/03 13:33:31;;;;;;;7.40;3.97;;;;;;;;;;5012101;28;20061;-58
2021/07/03 13:35:57;;;;;;;6.15;4.13;;;;;;;;;;5012223;28;20034;-59
2021/07/03 13:38:23;;;;;;;5.43;3.75;;;;;;;;;;5023911;28;20370;-59
2021/07/03 13:40:48;;;;;;;7.35;4.50;;;;;;;;;;5020794;28;20029;-59
2021/07/03 13:43:14;;;;;;;6.32;4.63;;;;;;;;;;5011639;28;20427;-64
2021/07/03 13:45:39;;;;;;;7.78;4.57;;;;;;;;;;5014998;28;20034;-64
2021/07/03 13:48:05;;;;;;;7.70;5.30;;;;;;;;;;5007306;28;20095;-64
2021/07/03 13:50:30;;;;;;;8.65;5.32;;;;;;;;;;5011926;28;20076;-64
2021/07/03 13:52:56;;;;;;;8.23;5.13;;;;;;;;;;5005391;28;20033;-64
2021/07/03 13:55:21;;;;;;;7.95;5.28;;;;;;;;;;5014778;28;20562;-64
2021/07/03 13:57:47;;;;;;;9.18;5.93;;;;;;;;;;5013596;28;20025;-64
2021/07/03 14:00:13;;;;;;;10.88;6.38;;;;;;;;;;5012294;28;20025;-64
2021/07/03 14:02:38;;;;;;;9.73;6.47;;;;;;;;;;5009017;28;20239;-64
2021/07/03 14:05:05;;;;;;;9.73;5.80;;;;;;;;;;5016765;28;20054;-64
2021/07/03 14:07:30;;;;;;;8.32;5.50;;;;;;;;;;5020759;28;20029;-64
2021/07/03 14:09:56;;;;;;;9.65;5.30;;;;;;;;;;5009681;28;20350;-65
2021/07/03 14:12:22;;;;;;;9.13;5.20;;;;;;;;;;5013895;28;20040;-65
2021/07/03 14:14:47;;;;;;;6.93;4.32;;;;;;;;;;5017135;28;20025;-65
2021/07/03 14:17:12;;;;;;;7.53;4.32;;;;;;;;;;5011341;28;20042;-65
2021/07/03 14:19:38;;;;;;;10.57;5.13;;;;;;;;;;5012912;28;20249;-64
2021/07/03 14:22:04;;;;;;;12.18;5.40;;;;;;;;;;5018277;28;20048;-64
2021/07/03 14:24:29;;;;;;;8.70;5.10;;;;;;;;;;5022772;28;20033;-63
2021/07/03 14:26:55;;;;;;;8.43;5.00;;;;;;;;;;5020734;28;20045;-64
2021/07/03 14:29:21;;;;;;;11.35;5.22;;;;;;;;;;5019026;28;20030;-62
2021/07/03 14:31:46;;;;;;;11.18;4.82;;;;;;;;;;5016608;28;20033;-64
2021/07/03 14:34:13;;;;;;;10.35;5.13;;;;;;;;;;5013611;28;20443;-63
2021/07/03 14:36:38;;;;;;;8.15;4.63;;;;;;;;;;5009580;28;20034;-63
2021/07/03 14:39:06;;;;;;;9.15;4.95;;;;;;;;;;5010766;28;20049;-64